Brinkhaven, Ohio
Current Conditions -  °F | °C
As of 10:16 PM on Tuesday 21 Oct 2014 (Local Time) from K4I3 Reporting Station
Overcast Overcast  
Wind Chill: 39°   Ceiling: 1200
Heat Index: 45°   Visibility: 10mi
Dew Point: 41°   Wind: 10mph
Humidity: 87%   Direction: 330°NNW
Pressure: 30.12"   Gusts: NA
Location:  40.48°N, 82.15°W
Report Text: K4I3 220216Z AUTO 33009KT 10SM OVC012 07/05 A3012 RMK AO2
Loading
Personal Weather Stations






























Interactive Weather Map
Tropical Storm Tracking
New forecast layout! Learn more

10-Day Weather Forecast

Advertisements
Track Severe Weather on mobile